Time;durP1;ratioP1;P1;durP2;ratioP2;P2;SDS_P1;SDS_P2;PMS_P1;PMS_P2;Temp;Humidity;BMP_temperature;BMP_pressure;BME280_temperature;BME280_humidity;BME280_pressure;Samples;Min_cycle;Max_cycle;Signal;HPM_P1;HPM_P2
2021/08/29 00:01:41;;;;;;;6.37;1.90;;;;;;;;;;5033207;28;20032;-63
2021/08/29 00:04:08;;;;;;;4.77;1.83;;;;;;;;;;5033337;28;20083;-63
2021/08/29 00:06:35;;;;;;;3.00;1.40;;;;;;;;;;5033345;28;20034;-64
2021/08/29 00:09:04;;;;;;;2.53;1.40;;;;;;;;;;5031786;28;20080;-63
2021/08/29 00:11:31;;;;;;;5.87;1.70;;;;;;;;;;5028033;28;20069;-63
2021/08/29 00:13:58;;;;;;;2.93;1.40;;;;;;;;;;5027897;28;20108;-63
2021/08/29 00:16:24;;;;;;;2.87;1.20;;;;;;;;;;5027731;28;20037;-64
2021/08/29 00:18:51;;;;;;;2.40;1.07;;;;;;;;;;5028109;28;20451;-63
2021/08/29 00:21:18;;;;;;;2.47;1.10;;;;;;;;;;5032178;28;20571;-63
2021/08/29 00:23:45;;;;;;;3.20;1.20;;;;;;;;;;5032933;28;20105;-63
2021/08/29 00:26:11;;;;;;;3.63;1.33;;;;;;;;;;5032799;28;20021;-63
2021/08/29 00:28:38;;;;;;;3.27;0.93;;;;;;;;;;5027604;28;20039;-65
2021/08/29 00:31:05;;;;;;;3.07;1.10;;;;;;;;;;5052139;28;20033;-62
2021/08/29 00:33:32;;;;;;;3.23;0.70;;;;;;;;;;5045308;28;20059;-63
2021/08/29 00:35:58;;;;;;;2.80;0.53;;;;;;;;;;5047480;28;20078;-65
2021/08/29 00:38:25;;;;;;;3.67;0.70;;;;;;;;;;5025807;28;20021;-64
2021/08/29 00:40:52;;;;;;;1.37;0.73;;;;;;;;;;5027048;28;20450;-64
2021/08/29 00:43:20;;;;;;;2.83;0.60;;;;;;;;;;5032176;28;20035;-64
2021/08/29 00:45:47;;;;;;;2.17;0.67;;;;;;;;;;5031480;28;20476;-64
2021/08/29 00:48:14;;;;;;;2.03;0.50;;;;;;;;;;5032798;28;20037;-64
2021/08/29 00:50:43;;;;;;;0.90;0.50;;;;;;;;;;5032314;28;20025;-64
2021/08/29 00:53:09;;;;;;;1.80;0.60;;;;;;;;;;5032312;28;20412;-65
2021/08/29 00:55:36;;;;;;;5.20;0.70;;;;;;;;;;5028414;28;20021;-66
2021/08/29 00:58:03;;;;;;;2.23;0.70;;;;;;;;;;5031224;28;20155;-64
2021/08/29 01:00:31;;;;;;;1.30;0.77;;;;;;;;;;5028283;28;20079;-63
2021/08/29 01:02:58;;;;;;;2.10;0.80;;;;;;;;;;5026324;28;20478;-64
2021/08/29 01:05:29;;;;;;;1.90;0.50;;;;;;;;;;5031433;28;20030;-64
2021/08/29 01:08:04;;;;;;;1.50;0.60;;;;;;;;;;5031751;28;20064;-63
2021/08/29 01:10:30;;;;;;;;;;;;;;;;;;5032453;28;20095;-63
2021/08/29 01:12:58;;;;;;;7.37;1.07;;;;;;;;;;5014447;28;20287;-63
2021/08/29 01:15:27;;;;;;;5.37;1.03;;;;;;;;;;5032124;28;20421;-64
2021/08/29 01:17:54;;;;;;;3.37;0.90;;;;;;;;;;5027309;28;20025;-64
2021/08/29 01:20:33;;;;;;;2.10;1.00;;;;;;;;;;5026904;28;20504;-64
2021/08/29 01:23:01;;;;;;;2.17;0.80;;;;;;;;;;5026903;28;20435;-64
2021/08/29 01:25:31;;;;;;;2.00;0.90;;;;;;;;;;5028007;28;20080;-65
2021/08/29 01:28:17;;;;;;;5.50;1.00;;;;;;;;;;5030982;28;20033;-64
2021/08/29 01:30:44;;;;;;;1.03;0.60;;;;;;;;;;5031871;28;20026;-63
2021/08/29 01:33:13;;;;;;;0.83;0.47;;;;;;;;;;5035333;28;20476;-62
2021/08/29 01:35:41;;;;;;;2.70;1.30;;;;;;;;;;5051783;28;20143;-63
2021/08/29 01:38:09;;;;;;;2.13;0.80;;;;;;;;;;5051746;28;20017;-63
2021/08/29 01:40:36;;;;;;;3.17;1.00;;;;;;;;;;5046540;28;20028;-63
2021/08/29 01:43:04;;;;;;;2.33;1.10;;;;;;;;;;5046775;28;20056;-63
2021/08/29 01:45:31;;;;;;;2.43;1.10;;;;;;;;;;5046447;28;20028;-65
2021/08/29 01:47:59;;;;;;;2.47;0.80;;;;;;;;;;5046162;28;20475;-63
2021/08/29 01:50:27;;;;;;;2.50;0.73;;;;;;;;;;5050827;28;20024;-63
2021/08/29 01:52:53;;;;;;;4.23;0.87;;;;;;;;;;5051820;28;20025;-64
2021/08/29 01:55:20;;;;;;;3.37;0.80;;;;;;;;;;5051773;28;20025;-64
2021/08/29 01:57:47;;;;;;;2.70;0.93;;;;;;;;;;5051558;28;20029;-66
2021/08/29 02:00:14;;;;;;;2.00;0.70;;;;;;;;;;5043194;28;20024;-64
2021/08/29 02:02:42;;;;;;;2.47;0.90;;;;;;;;;;5026905;28;20026;-64
2021/08/29 02:05:09;;;;;;;5.43;1.07;;;;;;;;;;5026251;28;20094;-64
2021/08/29 02:07:47;;;;;;;2.13;0.63;;;;;;;;;;5026460;28;20037;-64
2021/08/29 02:10:15;;;;;;;1.80;0.80;;;;;;;;;;5027123;28;20380;-64
2021/08/29 02:12:50;;;;;;;2.57;1.00;;;;;;;;;;5034565;28;20021;-64
2021/08/29 02:15:17;;;;;;;;;;;;;;;;;;5035837;28;20021;-64
2021/08/29 02:17:44;;;;;;;2.93;0.70;;;;;;;;;;5034864;28;19956;-64
2021/08/29 02:20:13;;;;;;;1.80;0.80;;;;;;;;;;5035258;28;20042;-64
2021/08/29 02:22:40;;;;;;;2.30;0.80;;;;;;;;;;5035246;28;20389;-64
2021/08/29 02:25:08;;;;;;;2.47;0.93;;;;;;;;;;5030760;28;20112;-64
2021/08/29 02:27:38;;;;;;;1.63;0.80;;;;;;;;;;5044138;28;20079;-64
2021/08/29 02:30:06;;;;;;;3.30;1.20;;;;;;;;;;5030063;28;20079;-64
2021/08/29 02:32:35;;;;;;;1.97;1.23;;;;;;;;;;5029761;28;20499;-64
2021/08/29 02:35:02;;;;;;;2.47;1.50;;;;;;;;;;5033565;28;20036;-64
2021/08/29 02:37:30;;;;;;;2.33;0.93;;;;;;;;;;5035096;28;20032;-64
2021/08/29 02:39:58;;;;;;;2.43;0.80;;;;;;;;;;5035055;28;20056;-64
2021/08/29 02:42:26;;;;;;;5.33;1.20;;;;;;;;;;5034962;28;20022;-64
2021/08/29 02:44:53;;;;;;;1.47;1.00;;;;;;;;;;5052386;28;20029;-64
2021/08/29 02:47:20;;;;;;;2.87;1.20;;;;;;;;;;5050478;28;20041;-64
2021/08/29 02:49:48;;;;;;;7.47;1.33;;;;;;;;;;5049294;28;20059;-64
2021/08/29 02:52:17;;;;;;;4.50;1.53;;;;;;;;;;5049492;28;20082;-64
2021/08/29 02:54:45;;;;;;;4.50;1.33;;;;;;;;;;5049317;28;20100;-64
2021/08/29 02:57:14;;;;;;;2.07;0.97;;;;;;;;;;5052694;28;20028;-64
2021/08/29 02:59:41;;;;;;;3.67;1.23;;;;;;;;;;5052838;28;20024;-64
2021/08/29 03:02:12;;;;;;;2.20;1.03;;;;;;;;;;5044478;28;20400;-65
2021/08/29 03:04:39;;;;;;;4.57;1.23;;;;;;;;;;5034215;28;20029;-65
2021/08/29 03:07:06;;;;;;;4.60;1.17;;;;;;;;;;5034297;28;20037;-65
2021/08/29 03:09:34;;;;;;;2.87;1.00;;;;;;;;;;5030774;28;20025;-65
2021/08/29 03:12:08;;;;;;;4.70;0.87;;;;;;;;;;5029126;28;20025;-66
2021/08/29 03:14:35;;;;;;;4.28;0.90;;;;;;;;;;5029047;28;20029;-65
2021/08/29 03:17:02;;;;;;;2.27;0.77;;;;;;;;;;5029005;28;20024;-65
2021/08/29 03:19:29;;;;;;;3.50;1.00;;;;;;;;;;5033065;28;20025;-65
2021/08/29 03:21:56;;;;;;;2.27;0.80;;;;;;;;;;5038012;28;20021;-65
2021/08/29 03:24:23;;;;;;;9.40;1.67;;;;;;;;;;5053965;28;20475;-64
2021/08/29 03:26:50;;;;;;;2.13;1.20;;;;;;;;;;5053742;28;20484;-65
2021/08/29 03:29:17;;;;;;;2.80;1.30;;;;;;;;;;5054054;28;20021;-65
2021/08/29 03:31:44;;;;;;;3.50;1.40;;;;;;;;;;5050885;28;20101;-65
2021/08/29 03:34:13;;;;;;;3.70;1.20;;;;;;;;;;5048759;28;20059;-64
2021/08/29 03:36:43;;;;;;;6.73;3.67;;;;;;;;;;5048244;28;20029;-64
2021/08/29 03:39:11;;;;;;;10.67;5.33;;;;;;;;;;5048661;28;20025;-64
2021/08/29 03:41:40;;;;;;;10.10;5.57;;;;;;;;;;5051245;28;20057;-63
2021/08/29 03:44:11;;;;;;;8.80;3.57;;;;;;;;;;5051704;28;20056;-64
2021/08/29 03:46:38;;;;;;;4.17;2.07;;;;;;;;;;5053010;28;20053;-64
2021/08/29 03:49:05;;;;;;;5.40;2.03;;;;;;;;;;5053414;28;20480;-63
2021/08/29 03:51:37;;;;;;;5.87;2.57;;;;;;;;;;5053059;28;20017;-63
2021/08/29 03:54:08;;;;;;;5.00;1.83;;;;;;;;;;5050476;28;20431;-63
2021/08/29 03:56:43;;;;;;;8.23;1.53;;;;;;;;;;5047982;28;20017;-64
2021/08/29 03:59:14;;;;;;;4.05;2.15;;;;;;;;;;5047964;28;20017;-64
2021/08/29 04:01:45;;;;;;;4.93;1.57;;;;;;;;;;5046156;28;20025;-63
2021/08/29 04:04:15;;;;;;;3.63;1.30;;;;;;;;;;5050433;28;20028;-63
2021/08/29 04:06:46;;;;;;;1.80;1.10;;;;;;;;;;5051205;28;20040;-63
2021/08/29 04:09:24;;;;;;;7.27;1.40;;;;;;;;;;5053194;28;20354;-63
2021/08/29 04:12:00;;;;;;;3.97;1.60;;;;;;;;;;5052938;28;20021;-64
2021/08/29 04:14:33;;;;;;;5.10;1.70;;;;;;;;;;5052786;28;20025;-63
2021/08/29 04:17:05;;;;;;;2.90;1.20;;;;;;;;;;5048503;28;20540;-63
2021/08/29 04:19:46;;;;;;;2.27;1.43;;;;;;;;;;5047594;28;20492;-63
2021/08/29 04:22:20;;;;;;;9.27;1.20;;;;;;;;;;5045914;28;20124;-63
2021/08/29 04:24:51;;;;;;;2.70;0.70;;;;;;;;;;5047193;28;20111;-63
2021/08/29 04:27:22;;;;;;;2.97;0.90;;;;;;;;;;5052193;28;20435;-63
2021/08/29 04:29:53;;;;;;;7.77;1.17;;;;;;;;;;5052676;28;20420;-63
2021/08/29 04:32:22;;;;;;;2.57;0.97;;;;;;;;;;5052279;28;20372;-63
2021/08/29 04:34:56;;;;;;;1.60;0.67;;;;;;;;;;5052629;28;20044;-63
2021/08/29 04:37:40;;;;;;;3.40;0.77;;;;;;;;;;5052319;28;20503;-63
2021/08/29 04:40:18;;;;;;;1.97;0.80;;;;;;;;;;5047457;28;20025;-63
2021/08/29 04:42:50;;;;;;;7.70;0.80;;;;;;;;;;5045527;28;20514;-63
2021/08/29 04:45:25;;;;;;;1.63;0.67;;;;;;;;;;5046760;28;20114;-63
2021/08/29 04:47:56;;;;;;;2.00;0.70;;;;;;;;;;5047698;28;20527;-63
2021/08/29 04:50:30;;;;;;;2.80;0.80;;;;;;;;;;5052554;28;20104;-63
2021/08/29 04:53:03;;;;;;;3.20;0.90;;;;;;;;;;5052281;28;20025;-63
2021/08/29 04:55:34;;;;;;;1.97;0.67;;;;;;;;;;5052184;28;20036;-63
2021/08/29 04:58:07;;;;;;;2.57;0.77;;;;;;;;;;5052153;28;20032;-63
2021/08/29 05:00:37;;;;;;;2.30;0.93;;;;;;;;;;5050789;28;20045;-63
2021/08/29 05:03:14;;;;;;;2.47;0.90;;;;;;;;;;5047023;28;20467;-63
2021/08/29 05:05:51;;;;;;;1.97;0.80;;;;;;;;;;5046867;28;20484;-63
2021/08/29 05:08:19;;;;;;;2.40;1.10;;;;;;;;;;5044732;28;20411;-63
2021/08/29 05:10:50;;;;;;;2.33;0.90;;;;;;;;;;5048230;28;20057;-63
2021/08/29 05:13:24;;;;;;;1.40;0.87;;;;;;;;;;5052362;28;20032;-63
2021/08/29 05:15:56;;;;;;;2.83;0.80;;;;;;;;;;5052013;28;20020;-63
2021/08/29 05:18:36;;;;;;;2.80;1.00;;;;;;;;;;5052033;28;20029;-63
2021/08/29 05:21:08;;;;;;;6.80;1.20;;;;;;;;;;5051993;28;20039;-63
2021/08/29 05:23:39;;;;;;;1.93;0.70;;;;;;;;;;5049014;28;20041;-63
2021/08/29 05:26:09;;;;;;;3.13;0.80;;;;;;;;;;5046614;28;20049;-63
2021/08/29 05:28:40;;;;;;;1.60;0.70;;;;;;;;;;5046343;28;20163;-63
2021/08/29 05:31:11;;;;;;;3.57;0.90;;;;;;;;;;5046169;28;20417;-63
2021/08/29 05:33:38;;;;;;;2.20;0.90;;;;;;;;;;5049249;28;20025;-63
2021/08/29 05:36:05;;;;;;;4.30;1.00;;;;;;;;;;5034934;28;20025;-63
2021/08/29 05:38:32;;;;;;;3.73;0.87;;;;;;;;;;5031953;28;20507;-63
2021/08/29 05:40:59;;;;;;;2.07;0.67;;;;;;;;;;5031739;28;20025;-63
2021/08/29 05:43:25;;;;;;;4.60;1.10;;;;;;;;;;5031928;28;20472;-63
2021/08/29 05:45:52;;;;;;;3.83;0.60;;;;;;;;;;5031859;28;20516;-63
2021/08/29 05:48:19;;;;;;;2.50;0.80;;;;;;;;;;5030271;28;20496;-63
2021/08/29 05:50:45;;;;;;;1.63;0.80;;;;;;;;;;5031688;28;20465;-63
2021/08/29 05:53:12;;;;;;;1.47;0.63;;;;;;;;;;5030741;28;20029;-63
2021/08/29 05:55:39;;;;;;;0.83;0.30;;;;;;;;;;5032325;28;20025;-63
2021/08/29 05:58:06;;;;;;;1.00;0.43;;;;;;;;;;5035699;28;20112;-63
2021/08/29 06:00:33;;;;;;;1.40;0.50;;;;;;;;;;5035943;28;20037;-63
2021/08/29 06:03:01;;;;;;;3.80;0.90;;;;;;;;;;5035383;28;20021;-63
2021/08/29 06:05:28;;;;;;;4.50;0.70;;;;;;;;;;5035297;28;20036;-63
2021/08/29 06:07:55;;;;;;;2.00;0.50;;;;;;;;;;5033532;28;20049;-63
2021/08/29 06:10:21;;;;;;;2.07;0.50;;;;;;;;;;5030265;28;20250;-63
2021/08/29 06:12:48;;;;;;;1.70;0.40;;;;;;;;;;5030415;28;20025;-63
2021/08/29 06:15:15;;;;;;;0.47;0.30;;;;;;;;;;5030320;28;20021;-63
2021/08/29 06:17:42;;;;;;;2.40;0.60;;;;;;;;;;5036439;28;20033;-63
2021/08/29 06:20:09;;;;;;;2.87;0.60;;;;;;;;;;5055099;28;20021;-63
2021/08/29 06:22:36;;;;;;;1.63;0.40;;;;;;;;;;5055245;28;20116;-63
2021/08/29 06:25:02;;;;;;;1.50;0.40;;;;;;;;;;5055063;28;20020;-63
2021/08/29 06:27:29;;;;;;;9.47;0.50;;;;;;;;;;5055064;28;20033;-63
2021/08/29 06:29:56;;;;;;;0.90;0.30;;;;;;;;;;5054171;28;20033;-63
2021/08/29 06:32:23;;;;;;;1.67;0.30;;;;;;;;;;5049702;28;20056;-64
2021/08/29 06:34:49;;;;;;;3.13;0.30;;;;;;;;;;5049746;28;20422;-63
2021/08/29 06:37:16;;;;;;;1.27;0.40;;;;;;;;;;5049590;28;20459;-63
2021/08/29 06:39:43;;;;;;;1.97;0.50;;;;;;;;;;5049607;28;20043;-63
2021/08/29 06:42:10;;;;;;;2.57;0.37;;;;;;;;;;5054440;28;20033;-63
2021/08/29 06:44:36;;;;;;;1.23;0.30;;;;;;;;;;5045203;28;20546;-63
2021/08/29 06:47:03;;;;;;;1.83;0.40;;;;;;;;;;5034844;28;20588;-63
2021/08/29 06:49:30;;;;;;;2.67;0.30;;;;;;;;;;5034842;28;20037;-63
2021/08/29 06:51:57;;;;;;;1.40;0.40;;;;;;;;;;5034807;28;20048;-63
2021/08/29 06:54:23;;;;;;;3.17;0.53;;;;;;;;;;5029300;28;20045;-64
2021/08/29 06:56:50;;;;;;;1.83;0.50;;;;;;;;;;5028563;28;20029;-63
2021/08/29 06:59:17;;;;;;;1.37;0.30;;;;;;;;;;5028973;28;20026;-63
2021/08/29 07:01:44;;;;;;;1.07;0.23;;;;;;;;;;5028427;28;20021;-63
2021/08/29 07:04:10;;;;;;;0.83;0.20;;;;;;;;;;5033948;28;20030;-63
2021/08/29 07:06:37;;;;;;;1.13;0.10;;;;;;;;;;5034641;28;20460;-63
2021/08/29 07:09:05;;;;;;;2.57;0.20;;;;;;;;;;5034709;28;20540;-63
2021/08/29 07:11:31;;;;;;;1.13;0.70;;;;;;;;;;5047405;28;20378;-63
2021/08/29 07:13:58;;;;;;;0.10;0.10;;;;;;;;;;5054438;28;20646;-63
2021/08/29 07:16:25;;;;;;;0.63;0.30;;;;;;;;;;5048917;28;20106;-63
2021/08/29 07:18:53;;;;;;;4.20;0.30;;;;;;;;;;5049072;28;20025;-63
2021/08/29 07:21:19;;;;;;;1.47;0.20;;;;;;;;;;5048840;28;20079;-63
2021/08/29 07:23:46;;;;;;;1.40;0.40;;;;;;;;;;5048732;28;20044;-63
2021/08/29 07:26:14;;;;;;;1.50;0.10;;;;;;;;;;5052952;28;20104;-63
2021/08/29 07:28:44;;;;;;;0.30;0.10;;;;;;;;;;5053974;28;20116;-63
2021/08/29 07:31:12;;;;;;;4.90;0.40;;;;;;;;;;5054299;28;20415;-63
2021/08/29 07:33:39;;;;;;;4.57;0.40;;;;;;;;;;5054225;28;20057;-62
2021/08/29 07:36:06;;;;;;;8.40;0.47;;;;;;;;;;5053892;28;20396;-63
2021/08/29 07:38:33;;;;;;;4.63;0.60;;;;;;;;;;5030884;28;20033;-62
2021/08/29 07:41:00;;;;;;;2.80;1.70;;;;;;;;;;5028732;28;20524;-62
2021/08/29 07:43:27;;;;;;;2.63;0.40;;;;;;;;;;5028536;28;20104;-62
2021/08/29 07:45:54;;;;;;;1.90;0.30;;;;;;;;;;5028141;28;20029;-62
2021/08/29 07:48:21;;;;;;;2.93;0.40;;;;;;;;;;5031637;28;20057;-62
2021/08/29 07:50:47;;;;;;;0.40;0.13;;;;;;;;;;5033760;28;20391;-62
2021/08/29 07:53:14;;;;;;;1.00;0.47;;;;;;;;;;5033890;28;20030;-62
2021/08/29 07:55:41;;;;;;;1.70;0.17;;;;;;;;;;5033960;28;20040;-62
2021/08/29 07:58:08;;;;;;;1.13;0.23;;;;;;;;;;5033602;28;20033;-62
2021/08/29 08:00:35;;;;;;;0.37;0.20;;;;;;;;;;5029738;28;20021;-62
2021/08/29 08:03:01;;;;;;;3.70;0.93;;;;;;;;;;5029947;28;20026;-63
2021/08/29 08:05:28;;;;;;;1.60;0.37;;;;;;;;;;5047826;28;20096;-62
2021/08/29 08:07:55;;;;;;;0.83;0.10;;;;;;;;;;5047371;28;20037;-62
2021/08/29 08:10:25;;;;;;;0.97;0.30;;;;;;;;;;5051067;28;20029;-62
2021/08/29 08:12:52;;;;;;;3.10;0.30;;;;;;;;;;5053325;28;20074;-62
2021/08/29 08:15:19;;;;;;;3.17;0.27;;;;;;;;;;5053236;28;20418;-62
2021/08/29 08:17:46;;;;;;;0.67;0.30;;;;;;;;;;5051376;28;20029;-63
2021/08/29 08:20:13;;;;;;;3.20;0.50;;;;;;;;;;5052631;28;20480;-62
2021/08/29 08:22:40;;;;;;;0.10;0.10;;;;;;;;;;5049380;28;20079;-62
2021/08/29 08:25:08;;;;;;;2.87;0.40;;;;;;;;;;5047730;28;20021;-62
2021/08/29 08:27:34;;;;;;;2.40;0.33;;;;;;;;;;5047339;28;20411;-62
2021/08/29 08:30:01;;;;;;;4.60;0.30;;;;;;;;;;5040266;28;20021;-62
2021/08/29 08:32:29;;;;;;;0.67;0.20;;;;;;;;;;5030415;28;20026;-63
2021/08/29 08:34:55;;;;;;;1.00;0.20;;;;;;;;;;5032828;28;20030;-62
2021/08/29 08:37:22;;;;;;;4.33;1.43;;;;;;;;;;5032666;28;20056;-63
2021/08/29 08:39:49;;;;;;;0.40;0.20;;;;;;;;;;5032910;28;20554;-63
2021/08/29 08:42:16;;;;;;;0.50;0.30;;;;;;;;;;5032780;28;20025;-64
2021/08/29 08:44:44;;;;;;;5.80;0.30;;;;;;;;;;5030017;28;20034;-62
2021/08/29 08:47:12;;;;;;;4.03;0.60;;;;;;;;;;5027294;28;20480;-62
2021/08/29 08:49:41;;;;;;;2.00;0.40;;;;;;;;;;5027466;28;20093;-62
2021/08/29 08:52:10;;;;;;;1.83;0.90;;;;;;;;;;5026808;28;20024;-62
2021/08/29 08:54:37;;;;;;;0.87;0.57;;;;;;;;;;5029607;28;20028;-63
2021/08/29 08:57:04;;;;;;;2.47;0.70;;;;;;;;;;5043973;28;20027;-62
2021/08/29 08:59:33;;;;;;;1.63;0.70;;;;;;;;;;5052416;28;20100;-62
2021/08/29 09:02:00;;;;;;;3.57;0.90;;;;;;;;;;5052631;28;20077;-62
2021/08/29 09:04:27;;;;;;;3.10;0.57;;;;;;;;;;5052492;28;20032;-62
2021/08/29 09:06:54;;;;;;;2.77;0.50;;;;;;;;;;5049300;28;20075;-62
2021/08/29 09:09:21;;;;;;;2.87;0.50;;;;;;;;;;5046789;28;20540;-63
2021/08/29 09:11:48;;;;;;;1.43;0.67;;;;;;;;;;5046752;28;20419;-63
2021/08/29 09:14:14;;;;;;;2.73;0.80;;;;;;;;;;5047141;28;20036;-62
2021/08/29 09:16:50;;;;;;;3.03;0.60;;;;;;;;;;5040688;28;20111;-62
2021/08/29 09:19:19;;;;;;;1.27;0.50;;;;;;;;;;5032106;28;20092;-62
2021/08/29 09:21:45;;;;;;;3.43;0.80;;;;;;;;;;5042718;28;20021;-62
2021/08/29 09:24:15;;;;;;;2.13;0.50;;;;;;;;;;5052058;28;20357;-62
2021/08/29 09:26:43;;;;;;;5.70;0.90;;;;;;;;;;5051817;28;20474;-62
2021/08/29 09:29:20;;;;;;;1.73;0.63;;;;;;;;;;5039155;28;20115;-62
2021/08/29 09:31:48;;;;;;;6.17;1.47;;;;;;;;;;5026869;28;20380;-61
2021/08/29 09:34:18;;;;;;;4.13;0.70;;;;;;;;;;5042051;28;20025;-62
2021/08/29 09:36:45;;;;;;;1.70;0.47;;;;;;;;;;5046403;28;20064;-62
2021/08/29 09:39:13;;;;;;;2.93;0.40;;;;;;;;;;5048600;28;20021;-62
2021/08/29 09:41:40;;;;;;;1.37;0.50;;;;;;;;;;5051576;28;20025;-62
2021/08/29 09:44:17;;;;;;;1.93;0.80;;;;;;;;;;5041384;28;20035;-62
2021/08/29 09:46:50;;;;;;;1.50;0.60;;;;;;;;;;5031723;28;20071;-62
2021/08/29 09:49:30;;;;;;;4.20;0.80;;;;;;;;;;5032127;28;20385;-62
2021/08/29 09:51:58;;;;;;;1.27;0.60;;;;;;;;;;5028045;28;20178;-62
2021/08/29 09:54:32;;;;;;;2.37;0.43;;;;;;;;;;5026211;28;20346;-62
2021/08/29 09:56:59;;;;;;;3.53;0.83;;;;;;;;;;5026275;28;20376;-63
2021/08/29 09:59:39;;;;;;;6.47;1.20;;;;;;;;;;5026071;28;20024;-61
2021/08/29 10:02:06;;;;;;;2.63;1.50;;;;;;;;;;5029876;28;20080;-62
2021/08/29 10:04:33;;;;;;;4.33;1.73;;;;;;;;;;5031729;28;20059;-62
2021/08/29 10:07:13;;;;;;;6.50;1.97;;;;;;;;;;5031700;28;20126;-62
2021/08/29 10:09:40;;;;;;;3.37;1.80;;;;;;;;;;5030947;28;20033;-62
2021/08/29 10:12:08;;;;;;;4.47;1.60;;;;;;;;;;5031659;28;20025;-61
2021/08/29 10:14:36;;;;;;;2.37;1.13;;;;;;;;;;5027090;28;20021;-62
2021/08/29 10:17:03;;;;;;;2.27;1.10;;;;;;;;;;5026103;28;20018;-62
2021/08/29 10:19:30;;;;;;;2.57;1.07;;;;;;;;;;5025955;28;20484;-62
2021/08/29 10:21:58;;;;;;;1.07;0.70;;;;;;;;;;5026234;28;20561;-62
2021/08/29 10:24:28;;;;;;;2.03;0.70;;;;;;;;;;5029301;28;20029;-62
2021/08/29 10:26:55;;;;;;;0.80;0.67;;;;;;;;;;5031462;28;20026;-62
2021/08/29 10:29:28;;;;;;;5.10;0.93;;;;;;;;;;5031684;28;20482;-62
2021/08/29 10:32:13;;;;;;;1.60;0.80;;;;;;;;;;5034503;28;20018;-62
2021/08/29 10:34:41;;;;;;;1.30;0.70;;;;;;;;;;5034509;28;20104;-62
2021/08/29 10:37:09;;;;;;;3.33;0.80;;;;;;;;;;5029585;28;20036;-62
2021/08/29 10:39:37;;;;;;;1.57;0.60;;;;;;;;;;5029867;28;20033;-62
2021/08/29 10:42:04;;;;;;;1.30;0.67;;;;;;;;;;5029576;28;20025;-62
2021/08/29 10:44:31;;;;;;;1.07;0.50;;;;;;;;;;5029516;28;20103;-62
2021/08/29 10:46:58;;;;;;;2.43;1.00;;;;;;;;;;5033817;28;20029;-61
2021/08/29 10:49:25;;;;;;;1.87;0.50;;;;;;;;;;5034404;28;20025;-62
2021/08/29 10:51:53;;;;;;;0.97;0.40;;;;;;;;;;5034853;28;20416;-62
2021/08/29 10:54:20;;;;;;;1.93;0.57;;;;;;;;;;5034726;28;20049;-61
2021/08/29 10:56:47;;;;;;;1.93;0.70;;;;;;;;;;5034821;28;20048;-62
2021/08/29 10:59:13;;;;;;;13.30;1.10;;;;;;;;;;5030203;28;20103;-62
2021/08/29 11:01:44;;;;;;;2.77;0.53;;;;;;;;;;5029316;28;20096;-62
2021/08/29 11:04:22;;;;;;;2.30;0.83;;;;;;;;;;5028778;28;20060;-62
2021/08/29 11:06:51;;;;;;;6.63;0.80;;;;;;;;;;5029085;28;20033;-62
2021/08/29 11:09:47;;;;;;;0.70;0.30;;;;;;;;;;5033336;28;20029;-61
2021/08/29 11:12:14;;;;;;;1.47;0.47;;;;;;;;;;5025567;28;20037;-62
2021/08/29 11:14:48;;;;;;;0.70;0.37;;;;;;;;;;5034371;28;20040;-62
2021/08/29 11:17:17;;;;;;;0.97;0.40;;;;;;;;;;5034376;28;20024;-62
2021/08/29 11:19:45;;;;;;;0.83;0.50;;;;;;;;;;5033964;28;20101;-62
2021/08/29 11:22:12;;;;;;;5.33;0.53;;;;;;;;;;5028877;28;20083;-62
2021/08/29 11:24:54;;;;;;;3.70;0.70;;;;;;;;;;5028803;28;20395;-62
2021/08/29 11:27:33;;;;;;;4.00;1.40;;;;;;;;;;5028013;28;20044;-62
2021/08/29 11:30:00;;;;;;;4.20;0.90;;;;;;;;;;5029527;28;20040;-62
2021/08/29 11:32:33;;;;;;;5.23;0.90;;;;;;;;;;5034068;28;20029;-62
2021/08/29 11:35:18;;;;;;;2.53;1.33;;;;;;;;;;5033809;28;20025;-61
2021/08/29 11:38:01;;;;;;;1.80;0.93;;;;;;;;;;5034228;28;20049;-62
2021/08/29 11:40:44;;;;;;;2.50;1.10;;;;;;;;;;5034129;28;20025;-62
2021/08/29 11:43:19;;;;;;;2.40;1.03;;;;;;;;;;5029692;28;20025;-63
2021/08/29 11:45:46;;;;;;;3.03;0.90;;;;;;;;;;5028464;28;20028;-63
2021/08/29 11:48:27;;;;;;;5.63;1.40;;;;;;;;;;5028316;28;20026;-62
2021/08/29 11:50:54;;;;;;;2.67;1.10;;;;;;;;;;5028090;28;20025;-62
2021/08/29 11:53:21;;;;;;;3.60;1.10;;;;;;;;;;5036028;28;20045;-62
2021/08/29 11:55:48;;;;;;;11.83;3.37;;;;;;;;;;5053723;28;20021;-62
2021/08/29 11:58:21;;;;;;;4.60;1.60;;;;;;;;;;5053563;28;20099;-62
2021/08/29 12:00:49;;;;;;;8.10;1.47;;;;;;;;;;5053715;28;20344;-62
2021/08/29 12:03:16;;;;;;;9.93;1.77;;;;;;;;;;5053513;28;20072;-62
2021/08/29 12:06:12;;;;;;;8.27;1.90;;;;;;;;;;5049495;28;20074;-63
2021/08/29 12:08:46;;;;;;;4.67;2.30;;;;;;;;;;4976549;28;20584;-62
2021/08/29 12:11:14;;;;;;;5.72;3.25;;;;;;;;;;5047914;28;20503;-62
2021/08/29 12:13:40;;;;;;;3.67;2.33;;;;;;;;;;5045206;28;20131;-62
2021/08/29 12:16:07;;;;;;;5.30;2.33;;;;;;;;;;5051779;28;20488;-62
2021/08/29 12:18:39;;;;;;;4.60;2.40;;;;;;;;;;5053112;28;20032;-62
2021/08/29 12:21:07;;;;;;;4.83;2.40;;;;;;;;;;5045307;28;20029;-62
2021/08/29 12:23:35;;;;;;;7.63;2.37;;;;;;;;;;5033158;28;20422;-62
2021/08/29 12:26:05;;;;;;;5.77;2.23;;;;;;;;;;5032972;28;20029;-62
2021/08/29 12:28:32;;;;;;;6.43;2.60;;;;;;;;;;5027722;28;20060;-63
2021/08/29 12:30:59;;;;;;;6.17;2.50;;;;;;;;;;5027515;28;20029;-62
2021/08/29 12:33:27;;;;;;;3.57;2.27;;;;;;;;;;5027390;28;20531;-63
2021/08/29 12:35:54;;;;;;;5.73;2.13;;;;;;;;;;5027329;28;20017;-62
2021/08/29 12:38:23;;;;;;;5.00;1.93;;;;;;;;;;5031443;28;20091;-62
2021/08/29 12:40:50;;;;;;;3.40;1.67;;;;;;;;;;5032779;28;20104;-62
2021/08/29 12:43:17;;;;;;;4.50;1.73;;;;;;;;;;5032322;28;20021;-62
2021/08/29 12:45:44;;;;;;;6.00;1.43;;;;;;;;;;5032811;28;20021;-61
2021/08/29 12:48:11;;;;;;;3.90;1.53;;;;;;;;;;5044797;28;20116;-62
2021/08/29 12:50:47;;;;;;;5.23;2.30;;;;;;;;;;5048267;28;20021;-62
2021/08/29 12:53:14;;;;;;;3.20;1.87;;;;;;;;;;5046437;28;20013;-62
2021/08/29 12:55:47;;;;;;;4.20;2.20;;;;;;;;;;5046956;28;20024;-64
2021/08/29 12:58:14;;;;;;;6.87;2.13;;;;;;;;;;5046907;28;20029;-62
2021/08/29 13:00:42;;;;;;;3.67;1.43;;;;;;;;;;5051042;28;20042;-62
2021/08/29 13:03:09;;;;;;;4.43;2.47;;;;;;;;;;5052423;28;20017;-61
2021/08/29 13:05:39;;;;;;;4.10;1.40;;;;;;;;;;5052384;28;20017;-62
2021/08/29 13:08:07;;;;;;;5.30;1.50;;;;;;;;;;5052284;28;20036;-62
2021/08/29 13:10:34;;;;;;;8.33;1.40;;;;;;;;;;5052208;28;20055;-62
2021/08/29 13:13:08;;;;;;;7.07;2.97;;;;;;;;;;5047456;28;20472;-62
2021/08/29 13:15:36;;;;;;;5.57;2.50;;;;;;;;;;5043557;28;20035;-62
2021/08/29 13:18:03;;;;;;;7.60;1.80;;;;;;;;;;5026801;28;20017;-62
2021/08/29 13:20:42;;;;;;;4.73;1.17;;;;;;;;;;5026830;28;20029;-62
2021/08/29 13:23:27;;;;;;;4.80;1.10;;;;;;;;;;5030847;28;20017;-62
2021/08/29 13:25:55;;;;;;;4.32;1.30;;;;;;;;;;5031967;28;20037;-62
2021/08/29 13:28:22;;;;;;;8.70;1.70;;;;;;;;;;5032122;28;20087;-62
2021/08/29 13:30:49;;;;;;;3.53;2.33;;;;;;;;;;5032233;28;20022;-63
2021/08/29 13:33:20;;;;;;;5.37;2.03;;;;;;;;;;5032022;28;20091;-62
2021/08/29 13:35:47;;;;;;;6.73;2.27;;;;;;;;;;5026581;28;20033;-62
2021/08/29 13:38:16;;;;;;;4.53;2.30;;;;;;;;;;5026845;28;20033;-62
2021/08/29 13:40:53;;;;;;;5.03;2.50;;;;;;;;;;5026518;28;20526;-61
2021/08/29 13:43:26;;;;;;;4.70;2.57;;;;;;;;;;5026353;28;20032;-62
2021/08/29 13:45:58;;;;;;;3.27;2.10;;;;;;;;;;5031173;28;20026;-62
2021/08/29 13:48:26;;;;;;;3.67;2.30;;;;;;;;;;5032107;28;20121;-62
2021/08/29 13:50:53;;;;;;;6.73;2.63;;;;;;;;;;5031752;28;20109;-62
2021/08/29 13:53:20;;;;;;;9.87;2.17;;;;;;;;;;5032001;28;20017;-62
2021/08/29 13:55:46;;;;;;;5.53;2.27;;;;;;;;;;5031656;28;20022;-62
2021/08/29 13:58:13;;;;;;;4.87;2.77;;;;;;;;;;5026239;28;20533;-63
2021/08/29 14:00:41;;;;;;;4.03;2.13;;;;;;;;;;5025775;28;20026;-62
2021/08/29 14:03:08;;;;;;;3.57;2.00;;;;;;;;;;5026324;28;20034;-62
2021/08/29 14:05:35;;;;;;;5.67;2.20;;;;;;;;;;5027074;28;20105;-63
2021/08/29 14:08:02;;;;;;;5.87;2.40;;;;;;;;;;5035380;28;20025;-62
2021/08/29 14:10:29;;;;;;;3.57;2.20;;;;;;;;;;5035792;28;20029;-62
2021/08/29 14:23:33;;;;;;;8.37;2.90;;;;;;;;;;5073654;27;2431554;-59
2021/08/29 14:25:59;;;;;;;3.47;2.20;;;;;;;;;;5124851;28;20057;-60
2021/08/29 14:28:26;;;;;;;4.47;2.47;;;;;;;;;;5124366;28;20083;-60
2021/08/29 14:30:53;;;;;;;5.27;2.47;;;;;;;;;;5124748;28;20050;-60
2021/08/29 14:33:20;;;;;;;6.27;2.47;;;;;;;;;;5124694;28;20035;-60
2021/08/29 14:35:46;;;;;;;3.90;2.30;;;;;;;;;;5129855;28;20030;-60
2021/08/29 14:38:13;;;;;;;4.63;1.73;;;;;;;;;;5129442;28;20016;-60
2021/08/29 14:40:40;;;;;;;4.93;2.00;;;;;;;;;;5130067;28;20458;-60
2021/08/29 14:43:07;;;;;;;4.27;1.73;;;;;;;;;;5130089;28;20157;-60
2021/08/29 14:45:34;;;;;;;5.80;1.97;;;;;;;;;;5129423;28;20023;-60
2021/08/29 14:48:01;;;;;;;5.87;2.10;;;;;;;;;;5124774;28;20024;-60
2021/08/29 14:50:30;;;;;;;9.67;1.97;;;;;;;;;;5124397;28;20038;-61
2021/08/29 14:52:57;;;;;;;5.50;2.70;;;;;;;;;;5124212;28;20052;-60
2021/08/29 14:55:23;;;;;;;4.17;1.90;;;;;;;;;;5124214;28;20026;-60
2021/08/29 14:57:51;;;;;;;4.33;2.47;;;;;;;;;;5128540;28;20023;-60
2021/08/29 15:00:19;;;;;;;4.53;2.13;;;;;;;;;;5129432;28;20020;-60
2021/08/29 15:02:46;;;;;;;4.03;1.97;;;;;;;;;;5129359;28;20028;-60
2021/08/29 15:05:13;;;;;;;4.00;2.10;;;;;;;;;;5126174;28;20020;-60